LROPLRBS

Guest
Details From LROP - Bucarest Otopeni Intl
To LRBS - Bucarest Baneasa
Flight Number -
Tags generated
Created
Modified
Stats Distance 4 nm / 8 km
Max Altitude 0 ft / 0 m
Waypoints 2
Social Downloads 0
Likes 0
Share VATSIM

Download

Looking for another format? Having issues loading an existing format? Contact us
Advertisement - Login to hide

Notes

Basic altitude profile: - Ascent Rate: 2500ft/min - Ascent Speed: 250kts - Cruise Altitude: 320000ft - Cruise Speed: 290kts - Descent Rate: 1500ft/min - Descent Speed: 250kts Options: - Use NATs: yes - Use PACOTS: yes - Use low airways: yes - Use high airways: yes

Route

LROP LRBS

ID Type Via Altitude Latitude Longitude Leg Dist Tot Dist Heading (true) Name
O LROP APT - 0 ft / 0 m 44.57216˚ 26.10218˚ - 0 nm - Bucarest Otopeni Intl
O LRBS APT - 0 ft / 0 m 44.50319˚ 26.10211˚ 4 nm 4 nm 180° / 180° Bucarest Baneasa

Altitude Profile

Advertisement - Login to hide

LROP

Details ICAO LROP (OTP)
Name Bucarest Otopeni Intl
Region Romania
Timezone Europe/Bucharest (UTC+3.0)
Stats Elevation 314 ft / 96 m (AMSL)
Location 44.572161° 26.102177°
Runways 2
Magnetic Variation 5.653° E

METAR

LROP 251530Z 18011KT 9999 -TSRA SCT050CB 23/15 Q1015 RETSRA TEMPO VRB20G30KT 3000 TSRA BKN010 BKN030CB

Decode

TAF

TAF LROP 251100Z 2512/2612 08012KT CAVOK TEMPO 2512/2517 VRB20G30KT 3000 TSRA BKN010 BKN030 BECMG 2518/2520 VRB04KT

Decode

Departure Runways

ID Width Length Bearing (true) Bearing (mag) Surface Threshold Offset Overrun Length
08L 148 ft / 45 m 11,457 ft / 3,492 m 83.91° 78.26° Asphalt 500 ft / 152 m 0 ft / 0 m
08R 148 ft / 45 m 11,455 ft / 3,491 m 83.89° 78.24° Asphalt 450 ft / 137 m 0 ft / 0 m
26L 148 ft / 45 m 11,455 ft / 3,491 m 263.92° 258.27° Asphalt 450 ft / 137 m 0 ft / 0 m
26R 148 ft / 45 m 11,457 ft / 3,492 m 263.94° 258.29° Asphalt 500 ft / 152 m 0 ft / 0 m

LRBS

Details ICAO LRBS (BBU)
Name Bucarest Baneasa
Region Romania
Timezone Europe/Bucharest (UTC+3.0)
Stats Elevation 297 ft / 91 m (AMSL)
Location 44.503193° 26.102113°
Runways 1
Magnetic Variation 5.643° E

METAR

LRBS 251530Z 15005KT 100V210 9999 -TSRA FEW030 SCT050CB 22/16 Q1015 TEMPO 3000 TSRA BKN010 BKN030CB

Decode

TAF

TAF TAF LRBS 251100Z 2512/2612 08012KT CAVOK TEMPO 2512/2517 VRB20G30KT 3000 TSRA BKN010 BKN030 BECMG 2518/2520 VRB04KT

Decode

Destination Runways

ID Width Length Bearing (true) Bearing (mag) Surface Threshold Offset Overrun Length
07 148 ft / 45 m 10,480 ft / 3,194 m 73.93° 68.29° Concrete 787 ft / 240 m 0 ft / 0 m
25 148 ft / 45 m 10,480 ft / 3,194 m 253.96° 248.32° Concrete 2,609 ft / 795 m 0 ft / 0 m

Approach Navaids

Runway Type Ident Frequency Range Bearing (true) Bearing (mag) Slope Elevation
07 Localiser IBS 109.50 MHz 18 nm / 33 km 73.94° 68.30° - 297 ft / 91 m (AMSL)
07 Glidescope IBS 109.50 MHz 10 nm / 19 km 73.95° 68.30° 3.00° 297 ft / 91 m (AMSL)

Popular Alternatives